sensor_id;sensor_type;location;lat;lon;timestamp;temperature;humidity
7143;DHT22;3613;48.902;9.204;2022-07-05T00:01:23;15.70;99.90
7143;DHT22;3613;48.902;9.204;2022-07-05T00:03:49;15.70;99.90
7143;DHT22;3613;48.902;9.204;2022-07-05T00:06:17;15.60;99.90
7143;DHT22;3613;48.902;9.204;2022-07-05T00:08:42;15.50;99.90
7143;DHT22;3613;48.902;9.204;2022-07-05T00:11:10;15.50;99.90
7143;DHT22;3613;48.902;9.204;2022-07-05T00:13:36;15.40;99.90
7143;DHT22;3613;48.902;9.204;2022-07-05T00:16:02;15.40;99.90
7143;DHT22;3613;48.902;9.204;2022-07-05T00:18:27;15.40;99.90
7143;DHT22;3613;48.902;9.204;2022-07-05T00:20:56;15.20;99.90
7143;DHT22;3613;48.902;9.204;2022-07-05T00:23:21;15.20;99.90
7143;DHT22;3613;48.902;9.204;2022-07-05T00:25:47;15.20;99.90
7143;DHT22;3613;48.902;9.204;2022-07-05T00:28:15;15.20;99.90
7143;DHT22;3613;48.902;9.204;2022-07-05T00:30:41;15.20;99.90
7143;DHT22;3613;48.902;9.204;2022-07-05T00:33:07;15.10;99.90
7143;DHT22;3613;48.902;9.204;2022-07-05T00:35:32;15.20;99.90
7143;DHT22;3613;48.902;9.204;2022-07-05T00:38:00;15.10;99.90
7143;DHT22;3613;48.902;9.204;2022-07-05T00:40:29;15.10;99.90
7143;DHT22;3613;48.902;9.204;2022-07-05T00:42:54;15.10;99.90
7143;DHT22;3613;48.902;9.204;2022-07-05T00:45:22;15.00;99.90
7143;DHT22;3613;48.902;9.204;2022-07-05T00:47:48;15.00;99.90
7143;DHT22;3613;48.902;9.204;2022-07-05T00:50:16;15.00;99.90
7143;DHT22;3613;48.902;9.204;2022-07-05T00:52:42;15.00;99.90
7143;DHT22;3613;48.902;9.204;2022-07-05T00:55:08;14.90;99.90
7143;DHT22;3613;48.902;9.204;2022-07-05T00:57:37;14.90;99.90
7143;DHT22;3613;48.902;9.204;2022-07-05T01:00:04;14.90;99.90
7143;DHT22;3613;48.902;9.204;2022-07-05T01:02:32;14.90;99.90
7143;DHT22;3613;48.902;9.204;2022-07-05T01:04:58;14.90;99.90
7143;DHT22;3613;48.902;9.204;2022-07-05T01:07:26;14.80;99.90
7143;DHT22;3613;48.902;9.204;2022-07-05T01:09:52;14.80;99.90
7143;DHT22;3613;48.902;9.204;2022-07-05T01:12:18;14.80;99.90
7143;DHT22;3613;48.902;9.204;2022-07-05T01:14:43;14.70;99.90
7143;DHT22;3613;48.902;9.204;2022-07-05T01:17:10;14.70;99.90
7143;DHT22;3613;48.902;9.204;2022-07-05T01:19:37;14.70;99.90
7143;DHT22;3613;48.902;9.204;2022-07-05T01:22:16;14.60;99.90
7143;DHT22;3613;48.902;9.204;2022-07-05T01:24:42;14.60;99.90
7143;DHT22;3613;48.902;9.204;2022-07-05T01:27:11;14.60;99.90
7143;DHT22;3613;48.902;9.204;2022-07-05T01:29:37;14.60;99.90
7143;DHT22;3613;48.902;9.204;2022-07-05T01:32:03;14.50;99.90
7143;DHT22;3613;48.902;9.204;2022-07-05T01:34:28;14.50;99.90
7143;DHT22;3613;48.902;9.204;2022-07-05T01:36:56;14.40;99.90
7143;DHT22;3613;48.902;9.204;2022-07-05T01:39:22;14.40;99.90
7143;DHT22;3613;48.902;9.204;2022-07-05T01:41:48;14.30;99.90
7143;DHT22;3613;48.902;9.204;2022-07-05T01:44:14;14.30;99.90
7143;DHT22;3613;48.902;9.204;2022-07-05T01:46:40;14.30;99.90
7143;DHT22;3613;48.902;9.204;2022-07-05T01:49:11;14.30;99.90
7143;DHT22;3613;48.902;9.204;2022-07-05T01:52:08;14.30;99.90
7143;DHT22;3613;48.902;9.204;2022-07-05T01:54:34;14.20;99.90
7143;DHT22;3613;48.902;9.204;2022-07-05T01:57:00;14.30;99.90
7143;DHT22;3613;48.902;9.204;2022-07-05T01:59:27;14.20;99.90
7143;DHT22;3613;48.902;9.204;2022-07-05T02:01:53;14.20;99.90
7143;DHT22;3613;48.902;9.204;2022-07-05T02:04:19;14.20;99.90
7143;DHT22;3613;48.902;9.204;2022-07-05T02:06:48;14.10;99.90
7143;DHT22;3613;48.902;9.204;2022-07-05T02:09:13;14.10;99.90
7143;DHT22;3613;48.902;9.204;2022-07-05T02:11:39;14.10;99.90
7143;DHT22;3613;48.902;9.204;2022-07-05T02:14:05;14.00;99.90
7143;DHT22;3613;48.902;9.204;2022-07-05T02:16:31;14.00;99.90
7143;DHT22;3613;48.902;9.204;2022-07-05T02:18:56;13.90;99.90
7143;DHT22;3613;48.902;9.204;2022-07-05T02:21:22;13.90;99.90
7143;DHT22;3613;48.902;9.204;2022-07-05T02:23:48;13.90;99.90
7143;DHT22;3613;48.902;9.204;2022-07-05T02:26:14;13.80;99.90
7143;DHT22;3613;48.902;9.204;2022-07-05T02:28:39;13.80;99.90
7143;DHT22;3613;48.902;9.204;2022-07-05T02:31:08;13.90;99.90
7143;DHT22;3613;48.902;9.204;2022-07-05T02:33:33;13.90;99.90
7143;DHT22;3613;48.902;9.204;2022-07-05T02:36:09;13.90;99.90
7143;DHT22;3613;48.902;9.204;2022-07-05T02:38:36;13.80;99.90
7143;DHT22;3613;48.902;9.204;2022-07-05T02:41:05;13.80;99.90
7143;DHT22;3613;48.902;9.204;2022-07-05T02:43:32;13.70;99.90
7143;DHT22;3613;48.902;9.204;2022-07-05T02:45:58;13.80;99.90
7143;DHT22;3613;48.902;9.204;2022-07-05T02:48:23;13.70;99.90
7143;DHT22;3613;48.902;9.204;2022-07-05T02:50:49;13.70;99.90
7143;DHT22;3613;48.902;9.204;2022-07-05T02:53:17;13.60;99.90
7143;DHT22;3613;48.902;9.204;2022-07-05T02:55:42;13.60;99.90
7143;DHT22;3613;48.902;9.204;2022-07-05T02:58:08;13.50;99.90
7143;DHT22;3613;48.902;9.204;2022-07-05T03:00:33;13.50;99.90
7143;DHT22;3613;48.902;9.204;2022-07-05T03:03:01;13.50;99.90
7143;DHT22;3613;48.902;9.204;2022-07-05T03:05:27;13.50;99.90
7143;DHT22;3613;48.902;9.204;2022-07-05T03:07:53;13.40;99.90
7143;DHT22;3613;48.902;9.204;2022-07-05T03:10:19;13.50;99.90
7143;DHT22;3613;48.902;9.204;2022-07-05T03:12:44;13.40;99.90
7143;DHT22;3613;48.902;9.204;2022-07-05T03:15:10;13.40;99.90
7143;DHT22;3613;48.902;9.204;2022-07-05T03:17:36;13.40;99.90
7143;DHT22;3613;48.902;9.204;2022-07-05T03:20:02;13.30;99.90
7143;DHT22;3613;48.902;9.204;2022-07-05T03:22:30;13.30;99.90
7143;DHT22;3613;48.902;9.204;2022-07-05T03:24:55;13.30;99.90
7143;DHT22;3613;48.902;9.204;2022-07-05T03:27:21;13.40;99.90
7143;DHT22;3613;48.902;9.204;2022-07-05T03:29:46;13.40;99.90
7143;DHT22;3613;48.902;9.204;2022-07-05T03:32:12;13.50;99.90
7143;DHT22;3613;48.902;9.204;2022-07-05T03:34:40;13.50;99.90
7143;DHT22;3613;48.902;9.204;2022-07-05T03:37:06;13.60;99.90
7143;DHT22;3613;48.902;9.204;2022-07-05T03:39:31;13.50;99.90
7143;DHT22;3613;48.902;9.204;2022-07-05T03:41:57;13.50;99.90
7143;DHT22;3613;48.902;9.204;2022-07-05T03:44:22;13.50;99.90
7143;DHT22;3613;48.902;9.204;2022-07-05T03:46:48;13.70;99.90
7143;DHT22;3613;48.902;9.204;2022-07-05T03:49:16;14.00;99.90
7143;DHT22;3613;48.902;9.204;2022-07-05T03:51:46;14.40;99.90
7143;DHT22;3613;48.902;9.204;2022-07-05T03:54:12;14.80;99.90
7143;DHT22;3613;48.902;9.204;2022-07-05T03:56:37;15.20;99.90
7143;DHT22;3613;48.902;9.204;2022-07-05T03:59:05;15.70;99.90
7143;DHT22;3613;48.902;9.204;2022-07-05T04:01:31;16.20;99.90
7143;DHT22;3613;48.902;9.204;2022-07-05T04:03:56;16.80;99.90
7143;DHT22;3613;48.902;9.204;2022-07-05T04:06:22;17.40;99.90
7143;DHT22;3613;48.902;9.204;2022-07-05T04:08:48;17.90;99.90
7143;DHT22;3613;48.902;9.204;2022-07-05T04:11:14;18.40;99.90
7143;DHT22;3613;48.902;9.204;2022-07-05T04:13:42;19.00;99.90
7143;DHT22;3613;48.902;9.204;2022-07-05T04:16:11;19.40;99.90
7143;DHT22;3613;48.902;9.204;2022-07-05T04:18:39;20.00;99.90
7143;DHT22;3613;48.902;9.204;2022-07-05T04:21:05;20.50;99.90
7143;DHT22;3613;48.902;9.204;2022-07-05T04:23:30;21.20;99.90
7143;DHT22;3613;48.902;9.204;2022-07-05T04:25:56;21.40;99.90
7143;DHT22;3613;48.902;9.204;2022-07-05T04:28:21;21.80;99.90
7143;DHT22;3613;48.902;9.204;2022-07-05T04:30:47;22.00;99.90
7143;DHT22;3613;48.902;9.204;2022-07-05T04:33:15;22.40;99.90
7143;DHT22;3613;48.902;9.204;2022-07-05T04:35:41;22.70;99.90
7143;DHT22;3613;48.902;9.204;2022-07-05T04:38:11;23.10;99.90
7143;DHT22;3613;48.902;9.204;2022-07-05T04:40:37;23.70;99.90
7143;DHT22;3613;48.902;9.204;2022-07-05T04:43:02;24.00;99.90
7143;DHT22;3613;48.902;9.204;2022-07-05T04:45:28;24.30;99.90
7143;DHT22;3613;48.902;9.204;2022-07-05T04:47:54;24.60;99.90
7143;DHT22;3613;48.902;9.204;2022-07-05T04:50:22;24.90;99.90
7143;DHT22;3613;48.902;9.204;2022-07-05T04:52:47;25.20;99.90
7143;DHT22;3613;48.902;9.204;2022-07-05T04:55:13;25.40;99.90
7143;DHT22;3613;48.902;9.204;2022-07-05T04:57:40;25.70;99.90
7143;DHT22;3613;48.902;9.204;2022-07-05T05:00:07;26.20;99.90
7143;DHT22;3613;48.902;9.204;2022-07-05T05:02:33;26.30;99.90
7143;DHT22;3613;48.902;9.204;2022-07-05T05:04:59;26.60;99.90
7143;DHT22;3613;48.902;9.204;2022-07-05T05:07:27;26.70;99.90
7143;DHT22;3613;48.902;9.204;2022-07-05T05:09:53;27.10;99.90
7143;DHT22;3613;48.902;9.204;2022-07-05T05:12:18;27.30;99.90
7143;DHT22;3613;48.902;9.204;2022-07-05T05:14:46;27.50;99.90
7143;DHT22;3613;48.902;9.204;2022-07-05T05:17:12;27.70;99.90
7143;DHT22;3613;48.902;9.204;2022-07-05T05:19:40;28.10;99.90
7143;DHT22;3613;48.902;9.204;2022-07-05T05:22:05;28.30;99.90
7143;DHT22;3613;48.902;9.204;2022-07-05T05:24:31;28.70;98.90
7143;DHT22;3613;48.902;9.204;2022-07-05T05:27:02;28.90;98.10
7143;DHT22;3613;48.902;9.204;2022-07-05T05:29:28;29.20;97.00
7143;DHT22;3613;48.902;9.204;2022-07-05T05:31:54;29.60;95.80
7143;DHT22;3613;48.902;9.204;2022-07-05T05:34:22;30.00;93.00
7143;DHT22;3613;48.902;9.204;2022-07-05T05:36:48;30.20;92.60
7143;DHT22;3613;48.902;9.204;2022-07-05T05:39:13;30.50;92.10
7143;DHT22;3613;48.902;9.204;2022-07-05T05:41:39;30.50;92.10
7143;DHT22;3613;48.902;9.204;2022-07-05T05:44:07;30.40;90.80
7143;DHT22;3613;48.902;9.204;2022-07-05T05:46:34;30.60;89.00
7143;DHT22;3613;48.902;9.204;2022-07-05T05:49:00;30.70;86.20
7143;DHT22;3613;48.902;9.204;2022-07-05T05:51:26;30.80;85.20
7143;DHT22;3613;48.902;9.204;2022-07-05T05:53:51;31.50;83.60
7143;DHT22;3613;48.902;9.204;2022-07-05T05:56:17;32.20;81.10
7143;DHT22;3613;48.902;9.204;2022-07-05T05:58:43;32.70;79.10
7143;DHT22;3613;48.902;9.204;2022-07-05T06:01:11;32.80;77.20
7143;DHT22;3613;48.902;9.204;2022-07-05T06:03:36;32.60;75.80
7143;DHT22;3613;48.902;9.204;2022-07-05T06:06:02;32.60;75.40
7143;DHT22;3613;48.902;9.204;2022-07-05T06:08:28;32.50;75.00
7143;DHT22;3613;48.902;9.204;2022-07-05T06:10:56;32.70;76.20
7143;DHT22;3613;48.902;9.204;2022-07-05T06:13:23;32.80;75.10
7143;DHT22;3613;48.902;9.204;2022-07-05T06:15:49;32.80;72.10
7143;DHT22;3613;48.902;9.204;2022-07-05T06:18:15;33.00;72.70
7143;DHT22;3613;48.902;9.204;2022-07-05T06:20:43;33.20;71.10
7143;DHT22;3613;48.902;9.204;2022-07-05T06:23:08;32.70;69.70
7143;DHT22;3613;48.902;9.204;2022-07-05T06:25:36;33.00;70.60
7143;DHT22;3613;48.902;9.204;2022-07-05T06:28:07;33.10;69.80
7143;DHT22;3613;48.902;9.204;2022-07-05T06:30:35;33.20;69.00
7143;DHT22;3613;48.902;9.204;2022-07-05T06:33:01;33.20;69.40
7143;DHT22;3613;48.902;9.204;2022-07-05T06:35:29;32.70;69.70
7143;DHT22;3613;48.902;9.204;2022-07-05T06:37:59;32.60;69.80
7143;DHT22;3613;48.902;9.204;2022-07-05T06:40:31;33.00;68.80
7143;DHT22;3613;48.902;9.204;2022-07-05T06:43:00;33.20;68.30
7143;DHT22;3613;48.902;9.204;2022-07-05T06:45:26;33.20;67.00
7143;DHT22;3613;48.902;9.204;2022-07-05T06:48:00;33.30;67.70
7143;DHT22;3613;48.902;9.204;2022-07-05T06:50:28;33.50;67.50
7143;DHT22;3613;48.902;9.204;2022-07-05T06:52:54;34.00;66.80
7143;DHT22;3613;48.902;9.204;2022-07-05T06:55:21;34.30;65.50
7143;DHT22;3613;48.902;9.204;2022-07-05T06:57:47;34.50;65.70
7143;DHT22;3613;48.902;9.204;2022-07-05T07:00:13;33.80;65.50
7143;DHT22;3613;48.902;9.204;2022-07-05T07:02:42;33.20;66.50
7143;DHT22;3613;48.902;9.204;2022-07-05T07:05:10;33.70;66.40
7143;DHT22;3613;48.902;9.204;2022-07-05T07:07:36;34.00;65.50
7143;DHT22;3613;48.902;9.204;2022-07-05T07:10:20;33.60;65.70
7143;DHT22;3613;48.902;9.204;2022-07-05T07:12:47;33.50;66.00
7143;DHT22;3613;48.902;9.204;2022-07-05T07:15:13;33.80;65.00
7143;DHT22;3613;48.902;9.204;2022-07-05T07:17:39;34.10;64.60
7143;DHT22;3613;48.902;9.204;2022-07-05T07:20:07;34.30;64.70
7143;DHT22;3613;48.902;9.204;2022-07-05T07:22:35;34.10;65.50
7143;DHT22;3613;48.902;9.204;2022-07-05T07:25:03;34.60;64.70
7143;DHT22;3613;48.902;9.204;2022-07-05T07:27:33;34.20;66.00
7143;DHT22;3613;48.902;9.204;2022-07-05T07:30:06;34.20;64.10
7143;DHT22;3613;48.902;9.204;2022-07-05T07:32:36;33.70;62.40
7143;DHT22;3613;48.902;9.204;2022-07-05T07:35:02;33.40;62.60
7143;DHT22;3613;48.902;9.204;2022-07-05T07:37:27;33.20;64.00
7143;DHT22;3613;48.902;9.204;2022-07-05T07:39:53;33.80;62.50
7143;DHT22;3613;48.902;9.204;2022-07-05T07:42:21;34.40;62.60
7143;DHT22;3613;48.902;9.204;2022-07-05T07:44:46;33.90;61.90
7143;DHT22;3613;48.902;9.204;2022-07-05T07:47:14;33.90;61.70
7143;DHT22;3613;48.902;9.204;2022-07-05T07:49:40;33.80;60.10
7143;DHT22;3613;48.902;9.204;2022-07-05T07:52:09;33.20;60.40
7143;DHT22;3613;48.902;9.204;2022-07-05T07:54:35;33.60;60.70
7143;DHT22;3613;48.902;9.204;2022-07-05T07:57:00;33.50;59.80
7143;DHT22;3613;48.902;9.204;2022-07-05T07:59:27;33.80;59.40
7143;DHT22;3613;48.902;9.204;2022-07-05T08:01:52;33.30;60.40
7143;DHT22;3613;48.902;9.204;2022-07-05T08:04:18;33.60;60.60
7143;DHT22;3613;48.902;9.204;2022-07-05T08:06:46;33.50;61.50
7143;DHT22;3613;48.902;9.204;2022-07-05T08:09:12;34.10;60.20
7143;DHT22;3613;48.902;9.204;2022-07-05T08:11:38;34.10;59.50
7143;DHT22;3613;48.902;9.204;2022-07-05T08:14:03;33.70;60.70
7143;DHT22;3613;48.902;9.204;2022-07-05T08:16:29;33.50;61.20
7143;DHT22;3613;48.902;9.204;2022-07-05T08:18:58;33.30;61.60
7143;DHT22;3613;48.902;9.204;2022-07-05T08:21:43;33.30;61.60
7143;DHT22;3613;48.902;9.204;2022-07-05T08:24:10;34.00;60.20
7143;DHT22;3613;48.902;9.204;2022-07-05T08:26:39;35.10;59.00
7143;DHT22;3613;48.902;9.204;2022-07-05T08:29:07;35.20;58.80
7143;DHT22;3613;48.902;9.204;2022-07-05T08:31:44;34.60;59.90
7143;DHT22;3613;48.902;9.204;2022-07-05T08:34:13;34.70;60.60
7143;DHT22;3613;48.902;9.204;2022-07-05T08:36:42;34.80;61.20
7143;DHT22;3613;48.902;9.204;2022-07-05T08:39:07;33.10;58.70
7143;DHT22;3613;48.902;9.204;2022-07-05T08:41:39;34.90;59.70
7143;DHT22;3613;48.902;9.204;2022-07-05T08:44:06;34.60;60.20
7143;DHT22;3613;48.902;9.204;2022-07-05T08:46:33;34.40;60.60
7143;DHT22;3613;48.902;9.204;2022-07-05T08:49:02;34.20;60.60
7143;DHT22;3613;48.902;9.204;2022-07-05T08:51:32;34.20;60.60
7143;DHT22;3613;48.902;9.204;2022-07-05T08:54:00;34.30;61.20
7143;DHT22;3613;48.902;9.204;2022-07-05T08:56:26;34.50;60.80
7143;DHT22;3613;48.902;9.204;2022-07-05T08:58:52;34.60;60.20
7143;DHT22;3613;48.902;9.204;2022-07-05T09:01:17;35.00;59.60
7143;DHT22;3613;48.902;9.204;2022-07-05T09:03:50;34.90;60.50
7143;DHT22;3613;48.902;9.204;2022-07-05T09:06:20;34.80;59.50
7143;DHT22;3613;48.902;9.204;2022-07-05T09:08:50;34.30;59.20
7143;DHT22;3613;48.902;9.204;2022-07-05T09:11:26;34.10;60.50
7143;DHT22;3613;48.902;9.204;2022-07-05T09:13:54;33.40;61.30
7143;DHT22;3613;48.902;9.204;2022-07-05T09:16:19;33.60;61.40
7143;DHT22;3613;48.902;9.204;2022-07-05T09:21:14;33.40;62.60
7143;DHT22;3613;48.902;9.204;2022-07-05T09:23:40;33.00;63.40
7143;DHT22;3613;48.902;9.204;2022-07-05T09:26:08;32.40;64.00
7143;DHT22;3613;48.902;9.204;2022-07-05T09:28:34;31.40;66.30
7143;DHT22;3613;48.902;9.204;2022-07-05T09:30:59;31.50;66.00
7143;DHT22;3613;48.902;9.204;2022-07-05T09:33:25;31.80;64.20
7143;DHT22;3613;48.902;9.204;2022-07-05T09:35:53;31.90;64.00
7143;DHT22;3613;48.902;9.204;2022-07-05T09:38:21;31.50;63.40
7143;DHT22;3613;48.902;9.204;2022-07-05T09:43:27;32.60;60.40
7143;DHT22;3613;48.902;9.204;2022-07-05T09:45:56;32.70;60.00
7143;DHT22;3613;48.902;9.204;2022-07-05T09:48:22;33.20;59.50
7143;DHT22;3613;48.902;9.204;2022-07-05T09:50:49;33.50;59.10
7143;DHT22;3613;48.902;9.204;2022-07-05T09:53:20;33.70;59.20
7143;DHT22;3613;48.902;9.204;2022-07-05T09:56:02;33.80;57.30
7143;DHT22;3613;48.902;9.204;2022-07-05T09:58:30;34.50;55.80
7143;DHT22;3613;48.902;9.204;2022-07-05T10:00:56;34.50;56.50
7143;DHT22;3613;48.902;9.204;2022-07-05T10:03:24;33.60;57.50
7143;DHT22;3613;48.902;9.204;2022-07-05T10:05:50;33.10;57.80
7143;DHT22;3613;48.902;9.204;2022-07-05T10:08:19;32.70;57.40
7143;DHT22;3613;48.902;9.204;2022-07-05T10:10:45;33.00;56.70
7143;DHT22;3613;48.902;9.204;2022-07-05T10:13:15;33.10;55.10
7143;DHT22;3613;48.902;9.204;2022-07-05T10:15:42;32.60;55.50
7143;DHT22;3613;48.902;9.204;2022-07-05T10:18:11;32.30;55.80
7143;DHT22;3613;48.902;9.204;2022-07-05T10:20:41;31.90;56.60
7143;DHT22;3613;48.902;9.204;2022-07-05T10:25:37;31.90;58.50
7143;DHT22;3613;48.902;9.204;2022-07-05T10:28:04;32.30;57.00
7143;DHT22;3613;48.902;9.204;2022-07-05T10:30:30;32.60;56.90
7143;DHT22;3613;48.902;9.204;2022-07-05T10:33:01;32.60;56.80
7143;DHT22;3613;48.902;9.204;2022-07-05T10:35:27;33.20;56.40
7143;DHT22;3613;48.902;9.204;2022-07-05T10:37:56;33.20;55.50
7143;DHT22;3613;48.902;9.204;2022-07-05T10:40:22;33.00;54.20
7143;DHT22;3613;48.902;9.204;2022-07-05T10:43:00;33.20;54.80
7143;DHT22;3613;48.902;9.204;2022-07-05T10:45:33;33.70;55.00
7143;DHT22;3613;48.902;9.204;2022-07-05T10:48:21;34.10;54.40
7143;DHT22;3613;48.902;9.204;2022-07-05T10:50:55;33.80;52.70
7143;DHT22;3613;48.902;9.204;2022-07-05T10:58:39;34.40;54.30
7143;DHT22;3613;48.902;9.204;2022-07-05T11:06:21;34.00;54.00
7143;DHT22;3613;48.902;9.204;2022-07-05T11:14:01;32.20;57.70
7143;DHT22;3613;48.902;9.204;2022-07-05T11:16:29;31.70;57.70
7143;DHT22;3613;48.902;9.204;2022-07-05T11:19:12;31.70;57.60
7143;DHT22;3613;48.902;9.204;2022-07-05T11:21:39;32.10;57.40
7143;DHT22;3613;48.902;9.204;2022-07-05T11:26:50;31.80;56.90
7143;DHT22;3613;48.902;9.204;2022-07-05T11:32:13;31.30;57.40
7143;DHT22;3613;48.902;9.204;2022-07-05T11:34:40;31.20;58.00
7143;DHT22;3613;48.902;9.204;2022-07-05T11:37:27;31.80;57.50
7143;DHT22;3613;48.902;9.204;2022-07-05T11:42:45;31.80;57.90
7143;DHT22;3613;48.902;9.204;2022-07-05T11:45:11;32.20;57.90
7143;DHT22;3613;48.902;9.204;2022-07-05T11:47:38;33.00;56.90
7143;DHT22;3613;48.902;9.204;2022-07-05T11:50:04;33.60;56.60
7143;DHT22;3613;48.902;9.204;2022-07-05T11:52:35;33.00;55.50
7143;DHT22;3613;48.902;9.204;2022-07-05T11:55:04;32.60;55.70
7143;DHT22;3613;48.902;9.204;2022-07-05T11:57:33;32.40;55.90
7143;DHT22;3613;48.902;9.204;2022-07-05T11:59:58;33.10;57.10
7143;DHT22;3613;48.902;9.204;2022-07-05T12:02:27;33.70;56.20
7143;DHT22;3613;48.902;9.204;2022-07-05T12:04:56;34.20;55.30
7143;DHT22;3613;48.902;9.204;2022-07-05T12:07:34;35.00;55.10
7143;DHT22;3613;48.902;9.204;2022-07-05T12:10:03;35.00;54.20
7143;DHT22;3613;48.902;9.204;2022-07-05T12:12:49;34.30;53.50
7143;DHT22;3613;48.902;9.204;2022-07-05T12:15:20;33.30;53.90
7143;DHT22;3613;48.902;9.204;2022-07-05T12:17:50;32.60;55.30
7143;DHT22;3613;48.902;9.204;2022-07-05T12:20:22;32.90;54.10
7143;DHT22;3613;48.902;9.204;2022-07-05T12:22:53;33.20;53.00
7143;DHT22;3613;48.902;9.204;2022-07-05T12:25:21;33.30;54.40
7143;DHT22;3613;48.902;9.204;2022-07-05T12:27:48;34.00;53.10
7143;DHT22;3613;48.902;9.204;2022-07-05T12:30:17;34.70;53.10
7143;DHT22;3613;48.902;9.204;2022-07-05T12:35:35;35.50;52.20
7143;DHT22;3613;48.902;9.204;2022-07-05T12:38:05;34.40;53.10
7143;DHT22;3613;48.902;9.204;2022-07-05T12:40:32;34.80;53.50
7143;DHT22;3613;48.902;9.204;2022-07-05T12:43:27;35.10;53.00
7143;DHT22;3613;48.902;9.204;2022-07-05T12:46:03;35.50;52.40
7143;DHT22;3613;48.902;9.204;2022-07-05T12:48:37;35.70;52.10
7143;DHT22;3613;48.902;9.204;2022-07-05T12:51:04;36.60;51.30
7143;DHT22;3613;48.902;9.204;2022-07-05T12:53:33;36.40;51.20
7143;DHT22;3613;48.902;9.204;2022-07-05T12:56:22;36.50;51.40
7143;DHT22;3613;48.902;9.204;2022-07-05T12:59:08;36.80;50.70
7143;DHT22;3613;48.902;9.204;2022-07-05T13:01:44;35.80;51.60
7143;DHT22;3613;48.902;9.204;2022-07-05T13:04:19;35.60;51.50
7143;DHT22;3613;48.902;9.204;2022-07-05T13:07:03;35.10;52.00
7143;DHT22;3613;48.902;9.204;2022-07-05T13:14:43;35.10;50.00
7143;DHT22;3613;48.902;9.204;2022-07-05T13:17:11;34.20;51.80
7143;DHT22;3613;48.902;9.204;2022-07-05T13:19:40;33.80;52.40
7143;DHT22;3613;48.902;9.204;2022-07-05T13:22:06;33.70;52.70
7143;DHT22;3613;48.902;9.204;2022-07-05T13:24:35;33.20;51.80
7143;DHT22;3613;48.902;9.204;2022-07-05T13:27:02;32.60;52.90
7143;DHT22;3613;48.902;9.204;2022-07-05T13:29:30;32.30;54.80
7143;DHT22;3613;48.902;9.204;2022-07-05T13:31:55;30.90;55.30
7143;DHT22;3613;48.902;9.204;2022-07-05T13:34:23;30.40;56.40
7143;DHT22;3613;48.902;9.204;2022-07-05T13:36:52;29.90;57.10
7143;DHT22;3613;48.902;9.204;2022-07-05T13:39:23;29.50;58.60
7143;DHT22;3613;48.902;9.204;2022-07-05T13:41:53;29.40;57.20
7143;DHT22;3613;48.902;9.204;2022-07-05T13:44:21;28.90;57.80
7143;DHT22;3613;48.902;9.204;2022-07-05T13:46:47;28.60;58.00
7143;DHT22;3613;48.902;9.204;2022-07-05T13:49:16;28.40;58.90
7143;DHT22;3613;48.902;9.204;2022-07-05T13:51:41;28.40;59.10
7143;DHT22;3613;48.902;9.204;2022-07-05T13:54:07;28.50;59.10
7143;DHT22;3613;48.902;9.204;2022-07-05T13:56:35;28.80;59.50
7143;DHT22;3613;48.902;9.204;2022-07-05T13:59:05;29.00;59.10
7143;DHT22;3613;48.902;9.204;2022-07-05T14:01:33;28.90;58.60
7143;DHT22;3613;48.902;9.204;2022-07-05T14:04:00;28.70;57.80
7143;DHT22;3613;48.902;9.204;2022-07-05T14:06:30;28.50;57.40
7143;DHT22;3613;48.902;9.204;2022-07-05T14:08:59;28.50;58.50
7143;DHT22;3613;48.902;9.204;2022-07-05T14:11:25;28.60;56.80
7143;DHT22;3613;48.902;9.204;2022-07-05T14:13:54;28.60;57.90
7143;DHT22;3613;48.902;9.204;2022-07-05T14:16:22;28.30;57.10
7143;DHT22;3613;48.902;9.204;2022-07-05T14:18:51;28.40;58.30
7143;DHT22;3613;48.902;9.204;2022-07-05T14:21:18;28.50;57.80
7143;DHT22;3613;48.902;9.204;2022-07-05T14:23:44;28.40;58.20
7143;DHT22;3613;48.902;9.204;2022-07-05T14:26:13;28.50;58.40
7143;DHT22;3613;48.902;9.204;2022-07-05T14:28:39;28.50;58.40
7143;DHT22;3613;48.902;9.204;2022-07-05T14:31:07;28.50;59.30
7143;DHT22;3613;48.902;9.204;2022-07-05T14:33:38;28.50;57.90
7143;DHT22;3613;48.902;9.204;2022-07-05T14:36:05;28.50;59.20
7143;DHT22;3613;48.902;9.204;2022-07-05T14:38:31;28.60;59.30
7143;DHT22;3613;48.902;9.204;2022-07-05T14:40:59;28.80;59.40
7143;DHT22;3613;48.902;9.204;2022-07-05T14:43:24;28.70;59.10
7143;DHT22;3613;48.902;9.204;2022-07-05T14:45:52;28.60;58.70
7143;DHT22;3613;48.902;9.204;2022-07-05T14:48:18;28.60;58.70
7143;DHT22;3613;48.902;9.204;2022-07-05T14:50:45;28.40;59.60
7143;DHT22;3613;48.902;9.204;2022-07-05T14:53:15;28.10;59.00
7143;DHT22;3613;48.902;9.204;2022-07-05T14:55:42;27.80;60.30
7143;DHT22;3613;48.902;9.204;2022-07-05T14:58:08;27.90;59.60
7143;DHT22;3613;48.902;9.204;2022-07-05T15:00:34;27.70;59.60
7143;DHT22;3613;48.902;9.204;2022-07-05T15:03:00;27.80;59.90
7143;DHT22;3613;48.902;9.204;2022-07-05T15:05:27;27.90;58.40
7143;DHT22;3613;48.902;9.204;2022-07-05T15:07:53;27.70;59.20
7143;DHT22;3613;48.902;9.204;2022-07-05T15:10:19;27.70;60.20
7143;DHT22;3613;48.902;9.204;2022-07-05T15:12:47;27.90;60.00
7143;DHT22;3613;48.902;9.204;2022-07-05T15:15:12;27.80;60.60
7143;DHT22;3613;48.902;9.204;2022-07-05T15:17:40;27.80;61.00
7143;DHT22;3613;48.902;9.204;2022-07-05T15:20:06;27.80;60.40
7143;DHT22;3613;48.902;9.204;2022-07-05T15:22:32;27.90;61.40
7143;DHT22;3613;48.902;9.204;2022-07-05T15:25:03;27.90;60.30
7143;DHT22;3613;48.902;9.204;2022-07-05T15:27:32;27.80;60.00
7143;DHT22;3613;48.902;9.204;2022-07-05T15:29:59;27.40;59.60
7143;DHT22;3613;48.902;9.204;2022-07-05T15:32:25;27.30;61.10
7143;DHT22;3613;48.902;9.204;2022-07-05T15:34:51;27.40;60.90
7143;DHT22;3613;48.902;9.204;2022-07-05T15:37:16;27.50;62.30
7143;DHT22;3613;48.902;9.204;2022-07-05T15:39:45;27.60;61.50
7143;DHT22;3613;48.902;9.204;2022-07-05T15:42:12;27.70;61.00
7143;DHT22;3613;48.902;9.204;2022-07-05T15:44:41;27.60;61.40
7143;DHT22;3613;48.902;9.204;2022-07-05T15:47:09;27.50;60.80
7143;DHT22;3613;48.902;9.204;2022-07-05T15:49:35;27.50;61.30
7143;DHT22;3613;48.902;9.204;2022-07-05T15:52:01;27.40;59.90
7143;DHT22;3613;48.902;9.204;2022-07-05T15:54:27;27.30;59.90
7143;DHT22;3613;48.902;9.204;2022-07-05T15:56:55;27.20;62.30
7143;DHT22;3613;48.902;9.204;2022-07-05T15:59:22;27.20;62.20
7143;DHT22;3613;48.902;9.204;2022-07-05T16:01:52;27.20;61.90
7143;DHT22;3613;48.902;9.204;2022-07-05T16:04:21;27.20;61.70
7143;DHT22;3613;48.902;9.204;2022-07-05T16:06:47;27.20;60.80
7143;DHT22;3613;48.902;9.204;2022-07-05T16:09:15;27.10;61.30
7143;DHT22;3613;48.902;9.204;2022-07-05T16:11:43;27.10;61.20
7143;DHT22;3613;48.902;9.204;2022-07-05T16:14:09;27.20;61.10
7143;DHT22;3613;48.902;9.204;2022-07-05T16:16:37;27.20;60.70
7143;DHT22;3613;48.902;9.204;2022-07-05T16:19:02;27.20;61.00
7143;DHT22;3613;48.902;9.204;2022-07-05T16:21:28;27.20;61.30
7143;DHT22;3613;48.902;9.204;2022-07-05T16:23:54;27.20;61.40
7143;DHT22;3613;48.902;9.204;2022-07-05T16:26:22;27.20;61.50
7143;DHT22;3613;48.902;9.204;2022-07-05T16:28:49;27.10;61.10
7143;DHT22;3613;48.902;9.204;2022-07-05T16:31:17;27.00;62.10
7143;DHT22;3613;48.902;9.204;2022-07-05T16:33:48;27.00;62.30
7143;DHT22;3613;48.902;9.204;2022-07-05T16:36:15;26.90;61.80
7143;DHT22;3613;48.902;9.204;2022-07-05T16:38:42;26.80;61.00
7143;DHT22;3613;48.902;9.204;2022-07-05T16:41:09;26.80;61.50
7143;DHT22;3613;48.902;9.204;2022-07-05T16:43:40;26.80;61.70
7143;DHT22;3613;48.902;9.204;2022-07-05T16:46:12;26.80;61.30